Slagle, Missouri
Current Conditions -  °F | °C
As of 9:52 PM on Sunday 23 Nov 2014 (Local Time) from KSGF Reporting Station
Moderate Rain Moderate Rain  
Wind Chill: 37°   Ceiling: 800
Heat Index: 46°   Visibility: 8mi
Dew Point: 42°   Wind: 29mph
Humidity: 86%   Direction: 330°NNW
Pressure: 29.36"   Gusts: 38mph
Location:  37.6066°N, 93.4143°W
Report Text: KSGF 240352Z 33025G33KT 8SM RA BKN008 BKN014 OVC026 08/06 A2936 RMK AO2 PK WND 34033/0352 SLP939 P0013 T00780056
Loading
Personal Weather Stations






























Interactive Weather Map New forecast layout! Learn more

10-Day Weather Forecast

Advertisements
Track Severe Weather on mobile